Home > Products > Valid Products > TAF

000
FTUS41 KBGM 231700
TAFITH
TAF
KITH 231720Z 2318/2418 28005KT P6SM FEW050
     FM240100 VRB02KT P6SM FEW250
     FM241400 15007KT P6SM SCT250=



000
FTUS41 KBGM 231700
TAFBGM
TAF
KBGM 231720Z 2318/2418 30007KT P6SM FEW050
     FM240100 09004KT P6SM FEW250
     FM241400 13008KT P6SM SCT250=



000
FTUS41 KBGM 231700
TAFAVP
TAF
KAVP 231720Z 2318/2418 VRB03KT P6SM SKC
     FM240100 10003KT P6SM FEW250
     FM241400 04006KT P6SM SCT250=



000
FTUS41 KBGM 231700
TAFSYR
TAF
KSYR 231720Z 2318/2418 27007KT P6SM SCT050
     FM240100 13002KT P6SM FEW250
     FM241400 16005KT P6SM SCT250=



000
FTUS41 KBGM 231700
TAFELM
TAF
KELM 231720Z 2318/2418 27005KT P6SM FEW050
     FM240100 00000KT P6SM FEW250
     FM240700 00000KT 4SM BR FEW250
      TEMPO 2407/2409 1/2SM FG BKN002
     FM240900 00000KT 1/2SM FG VV001
     FM241400 13006KT P6SM SCT250=



000
FTUS41 KBGM 231300 AAA
TAFBGM
TAF AMD
KBGM 231348Z 2314/2412 30006KT P6SM FEW050
     FM232300 VRB04KT P6SM FEW050=



000
FTUS41 KBGM 231300 AAA
TAFELM
TAF AMD
KELM 231348Z 2314/2412 VRB02KT P6SM BKN002
     FM231430 25005KT P6SM SKC
     FM231600 28007KT P6SM FEW050
     FM232300 VRB05KT P6SM FEW050
      TEMPO 2403/2407 1SM BR
     FM240700 VRB03KT 1SM BR SCT001=



000
FTUS41 KBGM 231300 AAA
TAFSYR
TAF AMD
KSYR 231346Z 2314/2412 28009KT P6SM BKN050
     FM231600 28009KT P6SM FEW050
     FM240100 10003KT P6SM FEW050=



000
FTUS41 KBGM 231300 AAA
TAFITH
TAF AMD
KITH 231346Z 2314/2412 28007KT P6SM FEW050
     FM232300 VRB03KT P6SM FEW050=



000
FTUS41 KBGM 231100
TAFELM
TAF
KELM 231120Z 2312/2412 25003KT 5SM BR SKC
      TEMPO 2312/2314 1SM BR VV001
     FM231400 25005KT P6SM SKC
     FM231600 28007KT P6SM BKN050
     FM232300 VRB05KT P6SM FEW050
      TEMPO 2403/2407 1SM BR
     FM240700 VRB03KT 1SM BR SCT001=



000
FTUS41 KBGM 231100
TAFBGM
TAF
KBGM 231120Z 2312/2412 30004KT P6SM SKC
     FM231600 30006KT P6SM BKN050
     FM232300 VRB04KT P6SM FEW050=



000
FTUS41 KBGM 231100
TAFAVP
TAF
KAVP 231120Z 2312/2412 VRB03KT P6SM SKC
     FM231600 32005KT P6SM FEW060
     FM232300 10003KT P6SM SKC=



000
FTUS41 KBGM 231100
TAFSYR
TAF
KSYR 231120Z 2312/2412 25009KT P6SM FEW035
     FM231500 28009KT P6SM BKN050
     FM240100 10003KT P6SM FEW050=



000
FTUS41 KBGM 231100
TAFITH
TAF
KITH 231120Z 2312/2412 VRB03KT P6SM SKC
     FM231500 28007KT P6SM BKN050
     FM232300 VRB03KT P6SM FEW050=



000
FTUS41 KBGM 231000 AAB
TAFITH
TAF AMD
KITH 231015Z 2310/2406 VRB03KT P6SM SKC
     FM231500 28007KT P6SM BKN040
     FM240100 VRB04KT P6SM FEW040=



000
FTUS41 KBGM 231000 AAB
TAFSYR
TAF AMD
KSYR 231014Z 2310/2406 25009KT P6SM FEW030
     FM231500 28008KT P6SM BKN040
     FM240100 10003KT P6SM FEW040=



000
FTUS41 KBGM 230800 AAA
TAFITH
TAF AMD
KITH 230855Z 2309/2406 29005KT P6SM BKN040
      TEMPO 2310/2314 BKN025
     FM231400 28006KT P6SM SCT025
     FM231500 28007KT P6SM BKN040
     FM240100 VRB04KT P6SM FEW040=



000
FTUS41 KBGM 230800 AAA
TAFBGM
TAF AMD
KBGM 230855Z 2309/2406 30004KT P6SM SKC
     FM231600 30006KT P6SM BKN035
     FM232300 VRB06KT P6SM FEW040=



000
FTUS41 KBGM 230800 AAD
TAFELM
TAF AMD
KELM 230855Z 2309/2406 25003KT 5SM BR SKC
      TEMPO 2309/2312 1SM BR VV001
     FM231600 28007KT P6SM BKN040
     FM232300 VRB05KT P6SM FEW040=



000
FTUS41 KBGM 230800 AAA
TAFAVP
TAF AMD
KAVP 230855Z 2309/2406 VRB03KT P6SM SKC
     FM231600 32005KT P6SM FEW040
     FM232300 VRB03KT P6SM SKC=



000
FTUS41 KBGM 230800 AAA
TAFSYR
TAF AMD
KSYR 230855Z 2309/2406 25009KT P6SM FEW030 BKN045
      TEMPO 2310/2314 BKN025
     FM231500 28008KT P6SM BKN040
     FM240100 10003KT P6SM FEW040=



000
FTUS41 KBGM 230800 AAC
TAFELM
TAF AMD
KELM 230822Z 2308/2406 25003KT 5SM BR SKC
      TEMPO 2308/2312 1SM BR VV001
     FM231600 28007KT P6SM BKN040
     FM232300 VRB05KT P6SM FEW040=



000
FTUS41 KBGM 230700 AAB
TAFELM
TAF AMD
KELM 230750Z 2308/2406 25003KT 5SM BR SKC
      TEMPO 2308/2312 1SM BR BKN002
     FM231600 28007KT P6SM BKN040
     FM232300 VRB05KT P6SM FEW040=



000
FTUS41 KBGM 230700 AAA
TAFELM
TAF AMD
KELM 230733Z 2308/2406 25003KT 5SM BR SKC
      TEMPO 2308/2312 1SM BR FEW001
     FM231600 28007KT P6SM BKN040
     FM232300 VRB05KT P6SM FEW040=



000
FTUS41 KBGM 230500
TAFITH
TAF
KITH 230534Z 2306/2406 29005KT P6SM BKN040
      TEMPO 2310/2314 BKN025
     FM231400 28006KT P6SM SCT025
     FM231500 28007KT P6SM BKN040
     FM240100 VRB04KT P6SM FEW040=



000
FTUS41 KBGM 230500
TAFELM
TAF
KELM 230534Z 2306/2406 25003KT P6SM SKC
      TEMPO 2308/2312 1SM BR FEW001
     FM231600 28007KT P6SM BKN040
     FM232300 VRB05KT P6SM FEW040=



000
FTUS41 KBGM 230500
TAFAVP
TAF
KAVP 230534Z 2306/2406 VRB03KT P6SM SKC
     FM231600 32005KT P6SM FEW040
     FM232300 VRB03KT P6SM SKC=



000
FTUS41 KBGM 230500
TAFBGM
TAF
KBGM 230534Z 2306/2406 30007KT P6SM SCT040
     FM231600 30006KT P6SM BKN035
     FM232300 VRB06KT P6SM FEW040=



000
FTUS41 KBGM 230500
TAFSYR
TAF
KSYR 230534Z 2306/2406 25009KT P6SM FEW030 BKN045
      TEMPO 2310/2314 BKN025
     FM231500 28008KT P6SM BKN040
     FM240100 10003KT P6SM FEW040=



000
FTUS41 KBGM 230500 AAA
TAFITH
TAF AMD
KITH 230513Z 2305/2324 31007KT P6SM FEW025 BKN040
      TEMPO 2310/2314 BKN025
     FM231600 30007KT P6SM SCT035=



000
FTUS41 KBGM 230500 AAA
TAFBGM
TAF AMD
KBGM 230513Z 2305/2324 30007KT P6SM FEW020 BKN035
     FM230900 27004KT P6SM SCT020
     FM231600 31007KT P6SM SCT035=



000
FTUS41 KBGM 230500 AAA
TAFSYR
TAF AMD
KSYR 230512Z 2305/2324 28009KT P6SM FEW030 BKN045
      TEMPO 2310/2314 BKN025
     FM231500 30008KT P6SM BKN040=



000
FTUS41 KBGM 230200 AAA
TAFELM
TAF AMD
KELM 230202Z 2302/2324 25003KT P6SM FEW030
      TEMPO 2308/2312 1SM BR FEW001
     FM231600 28007KT P6SM SCT040=



000
FTUS41 KBGM 222300
TAFSYR
TAF
KSYR 222335Z 2300/2324 28009KT P6SM FEW030 BKN045
      TEMPO 2302/2306 BKN030
     FM230600 27006KT P6SM BKN025
     FM231200 26004KT P6SM SCT025
     FM231500 30008KT P6SM BKN040=



000
FTUS41 KBGM 222300
TAFITH
TAF
KITH 222335Z 2300/2324 31007KT P6SM FEW025 BKN035
      TEMPO 2303/2307 BKN025
     FM230700 29004KT P6SM BKN020
     FM231100 27004KT P6SM SCT020
     FM231600 30007KT P6SM SCT035=



000
FTUS41 KBGM 222300
TAFAVP
TAF
KAVP 222335Z 2300/2324 35009KT P6SM SCT035
     FM230600 VRB02KT P6SM FEW030
     FM231500 32005KT P6SM FEW035=



000
FTUS41 KBGM 222300
TAFBGM
TAF
KBGM 222335Z 2300/2324 30007KT P6SM FEW020 BKN035
      TEMPO 2305/2309 BKN020
     FM230900 27004KT P6SM SCT020
     FM231600 31007KT P6SM SCT035=



000
FTUS41 KBGM 222300
TAFELM
TAF
KELM 222335Z 2300/2324 29009KT P6SM BKN040
     FM230500 25003KT P6SM FEW030
     FM231600 28007KT P6SM SCT040=



000
FTUS41 KBGM 222100 AAA
TAFBGM
TAF AMD
KBGM 222139Z 2222/2318 31010KT P6SM SCT025 BKN035
     FM230300 30005KT P6SM SCT035
     FM230800 27004KT P6SM BKN020
     FM231300 30007KT P6SM BKN035=



000
FTUS41 KBGM 222100 AAA
TAFSYR
TAF AMD
KSYR 222138Z 2222/2318 28012G18KT P6SM BKN035
     FM230000 29009KT P6SM OVC035
     FM230400 26004KT P6SM OVC028
     FM231400 28007KT P6SM BKN050=



000
FTUS41 KBGM 221700
TAFAVP
TAF
KAVP 221720Z 2218/2318 32010G18KT P6SM SCT028 OVC045
      TEMPO 2218/2221 BKN028 OVC045
     FM230000 33006KT P6SM FEW035
     FM230700 00000KT P6SM SKC
     FM231400 32005KT P6SM SCT035=



000
FTUS41 KBGM 221700
TAFBGM
TAF
KBGM 221720Z 2218/2318 30013G21KT P6SM OVC025
     FM221900 30014G22KT P6SM SCT025 BKN035
      TEMPO 2219/2222 BKN025 BKN035
     FM230300 30005KT P6SM SCT035
     FM230800 27004KT P6SM BKN020
     FM231300 30007KT P6SM BKN035=



000
FTUS41 KBGM 221700
TAFSYR
TAF
KSYR 221720Z 2218/2318 28011G18KT P6SM BKN035 OVC045
     FM222100 30011G17KT P6SM BKN050
     FM230000 29007KT P6SM OVC035
     FM230400 26004KT P6SM OVC028
     FM231400 28007KT P6SM BKN050=



000
FTUS41 KBGM 221700
TAFITH
TAF
KITH 221720Z 2218/2318 31011G20KT P6SM SCT028 OVC040
      TEMPO 2218/2221 -SHRA OVC028
     FM222200 32012G20KT P6SM BKN040
     FM230000 30009KT P6SM BKN035
     FM230800 28004KT P6SM OVC028
     FM231300 27007KT P6SM BKN035=



000
FTUS41 KBGM 221700
TAFELM
TAF
KELM 221720Z 2218/2318 29012G20KT P6SM BKN040
     FM230000 26008KT P6SM SCT035
     FM230300 25003KT P6SM SKC
     FM231300 29007KT P6SM BKN040=



000
FTUS41 KBGM 221500 AAB
TAFITH
TAF AMD
KITH 221515Z 2215/2312 30017G22KT P6SM SCT008 OVC025
      TEMPO 2215/2218 3SM -DZ BR OVC008
     FM221800 33012G20KT P6SM OVC035
     FM222200 32012G20KT P6SM SCT025 BKN035
     FM230000 30010KT P6SM BKN035=



000
FTUS41 KBGM 221500 AAB
TAFSYR
TAF AMD
KSYR 221513Z 2215/2312 28012G24KT P6SM SCT025 OVC035
      TEMPO 2215/2218 5SM -DZ BR OVC025
     FM221800 31014G22KT P6SM OVC035
     FM222100 31012G18KT P6SM SCT025 BKN035
     FM230000 30008KT P6SM BKN035=



000
FTUS41 KBGM 221300 AAA
TAFBGM
TAF AMD
KBGM 221351Z 2214/2312 31011KT P6SM -DZ SCT009 OVC014
      TEMPO 2214/2218 2SM -DZ BR OVC009
     FM221900 30014G22KT P6SM OVC025
     FM230000 30010KT P6SM SCT035=



000
FTUS41 KBGM 221300 AAA
TAFITH
TAF AMD
KITH 221350Z 2214/2312 33009G17KT P6SM -DZ SCT008 OVC025
      TEMPO 2214/2218 3SM -DZ BR OVC008
     FM221800 33012G20KT P6SM OVC025
     FM222200 32012G20KT P6SM SCT025 BKN035
     FM230000 30010KT P6SM BKN035=



000
FTUS41 KBGM 221300 AAA
TAFSYR
TAF AMD
KSYR 221349Z 2214/2312 28010KT 6SM -DZ BR SCT008 OVC025
      TEMPO 2214/2218 2SM -DZ BR OVC008
     FM221800 31014G22KT P6SM OVC025
     FM222100 31012G18KT P6SM SCT025 BKN035
     FM230000 30008KT P6SM BKN035=



000
FTUS41 KBGM 221100
TAFSYR
TAF
KSYR 221133Z 2212/2312 30011KT 6SM BR SCT015 OVC025
      TEMPO 2212/2214 2SM -DZ BR OVC015
     FM221500 31014G22KT P6SM OVC025
     FM222100 31012G18KT P6SM SCT025 BKN035
     FM230000 30008KT P6SM BKN035=



000
FTUS41 KBGM 221100
TAFELM
TAF
KELM 221133Z 2212/2312 32006KT P6SM SCT015 OVC025
      TEMPO 2212/2214 OVC015
     FM221400 33012G20KT P6SM OVC025
     FM221600 31012G20KT P6SM BKN035
     FM230000 26005KT P6SM FEW035=



000
FTUS41 KBGM 221100
TAFBGM
TAF
KBGM 221133Z 2212/2312 31005KT 5SM -DZ BR OVC006
      TEMPO 2212/2213 P6SM NSW SCT006 OVC011
     FM221300 32010G18KT P6SM SCT007 OVC015
      TEMPO 2213/2215 4SM -SHRA OVC007
     FM221600 32012G20KT P6SM BKN025
     FM221900 30014G22KT P6SM BKN035
     FM230000 30010KT P6SM SCT035=



000
FTUS41 KBGM 221100
TAFAVP
TAF
KAVP 221133Z 2212/2312 30006KT P6SM OVC040
      TEMPO 2212/2216 OVC028
     FM221600 31012G20KT P6SM BKN035
     FM230000 33006KT P6SM FEW035=



000
FTUS41 KBGM 221100
TAFITH
TAF
KITH 221133Z 2212/2312 32012G20KT 4SM -DZ BR OVC007
      TEMPO 2212/2214 P6SM NSW SCT007 OVC015
     FM221400 33012G20KT P6SM OVC015
     FM221600 33012G20KT P6SM BKN025
     FM222000 32012G20KT P6SM SCT025 BKN035
     FM230000 30010KT P6SM BKN035=



000
FTUS41 KBGM 221000 AAB
TAFITH
TAF AMD
KITH 221024Z 2210/2306 33012G18KT P6SM OVC020
      TEMPO 2210/2212 4SM -SHRA BR OVC007
     FM221600 33012G20KT P6SM BKN025
     FM222000 32012G20KT P6SM SCT025 BKN035
     FM230000 30010KT P6SM BKN035=



000
FTUS41 KBGM 221000 AAB
TAFELM
TAF AMD
KELM 221023Z 2210/2306 33010G16KT P6SM OVC025
      TEMPO 2210/2212 -SHRA OVC015
     FM221400 33012G20KT P6SM OVC025
     FM221600 31012G20KT P6SM BKN035
     FM230000 26005KT P6SM FEW035=



000
FTUS41 KBGM 221000 AAB
TAFBGM
TAF AMD
KBGM 221021Z 2210/2306 34012G18KT P6SM OVC015
      TEMPO 2210/2213 4SM -SHRA OVC007
     FM221600 32012G20KT P6SM BKN025
     FM221900 30014G22KT P6SM BKN035
     FM230000 30010KT P6SM SCT035=



000
FTUS41 KBGM 221000 AAC
TAFAVP
TAF AMD
KAVP 221020Z 2210/2306 25007KT P6SM BKN035
      TEMPO 2211/2212 BKN025
     FM221200 30010G16KT P6SM OVC025
     FM221600 31012G20KT P6SM BKN035
     FM230000 33006KT P6SM FEW035=



000
FTUS41 KBGM 220800 AAA
TAFBGM
TAF AMD
KBGM 220817Z 2208/2306 30012G18KT P6SM OVC015
      TEMPO 2209/2213 4SM -SHRA OVC007
     FM221600 30012G20KT P6SM BKN025
     FM221900 30014G22KT P6SM BKN035
     FM230000 30010KT P6SM SCT035=



000
FTUS41 KBGM 220800 AAA
TAFITH
TAF AMD
KITH 220817Z 2208/2306 30012G18KT P6SM OVC020
      TEMPO 2208/2212 4SM -SHRA BR OVC007
     FM221600 31012G20KT P6SM BKN025
     FM222000 31012G20KT P6SM SCT025 BKN035
     FM230000 30010KT P6SM BKN035=



000
FTUS41 KBGM 220800 AAB
TAFAVP
TAF AMD
KAVP 220817Z 2208/2306 25006KT P6SM BKN045
      TEMPO 2208/2210 BKN025
     FM221000 29010KT P6SM SCT015 OVC025
      TEMPO 2210/2213 OVC015
     FM221600 31012G20KT P6SM BKN035
     FM230000 33006KT P6SM FEW035=



000
FTUS41 KBGM 220800 AAB
TAFSYR
TAF AMD
KSYR 220817Z 2208/2306 30012G18KT P6SM OVC015
      TEMPO 2208/2212 5SM -SHRA BR OVC006
     FM221500 31014G22KT P6SM OVC025
     FM222100 31012G18KT P6SM SCT025 BKN035
     FM230000 30008KT P6SM BKN035=



000
FTUS41 KBGM 220800 AAA
TAFELM
TAF AMD
KELM 220817Z 2208/2306 29012G18KT P6SM OVC025
      TEMPO 2208/2212 -SHRA OVC015
     FM221400 30012G20KT P6SM OVC025
     FM221600 31012G20KT P6SM BKN035
     FM230000 26005KT P6SM FEW035=



000
FTUS41 KBGM 220700 AAA
TAFSYR
TAF AMD
KSYR 220759Z 2208/2306 30012KT P6SM OVC015
      TEMPO 2208/2212 5SM -SHRA BR OVC006
     FM221500 31014G22KT P6SM OVC025
     FM222100 31012G18KT P6SM SCT025 BKN035
     FM230000 30008KT P6SM BKN035=



000
FTUS41 KBGM 220700 AAA
TAFAVP
TAF AMD
KAVP 220708Z 2207/2306 25006KT P6SM BKN045
      TEMPO 2208/2210 BKN025
     FM221000 29010KT P6SM SCT015 OVC025
      TEMPO 2210/2213 OVC015
     FM221600 31012G20KT P6SM BKN035
     FM221900 30014G22KT P6SM SCT035
     FM230000 33006KT P6SM FEW035=



000
FTUS41 KBGM 220500
TAFELM
TAF
KELM 220526Z 2206/2306 26008KT P6SM OVC045
      TEMPO 2206/2207 BKN025 OVC035
     FM220700 30010KT P6SM OVC025
      TEMPO 2208/2212 OVC015
     FM221400 30012G20KT P6SM OVC025
     FM221600 31012G20KT P6SM BKN035
     FM230000 26005KT P6SM FEW035=



000
FTUS41 KBGM 220500
TAFITH
TAF
KITH 220526Z 2206/2306 25007KT P6SM BKN035
      TEMPO 2206/2207 BKN025
     FM220700 29012KT P6SM OVC020
      TEMPO 2208/2212 -SHRA OVC008
     FM221600 31012G20KT P6SM BKN025
     FM222000 31012G20KT P6SM SCT025 BKN035
     FM230000 30010KT P6SM BKN035=



000
FTUS41 KBGM 220500
TAFSYR
TAF
KSYR 220526Z 2206/2306 25012KT P6SM SCT025 BKN050
      TEMPO 2206/2207 5SM -SHRA OVC025
     FM220700 30010G18KT P6SM OVC025
      TEMPO 2208/2212 5SM -SHRA BR OVC012
     FM221500 31014G22KT P6SM OVC025
     FM222100 31012G18KT P6SM SCT025 BKN035
     FM230000 30008KT P6SM BKN035=



000
FTUS41 KBGM 220500
TAFBGM
TAF
KBGM 220526Z 2206/2306 27010KT P6SM BKN035
      TEMPO 2206/2208 BKN025
     FM220800 30010KT P6SM OVC015
      TEMPO 2209/2213 OVC008
     FM221400 30012G20KT P6SM OVC015
     FM221600 30012G20KT P6SM BKN025
     FM221900 30014G22KT P6SM BKN035
     FM230000 30010KT P6SM SCT035=



000
FTUS41 KBGM 220500
TAFAVP
TAF
KAVP 220526Z 2206/2306 25006KT P6SM SCT050
     FM220800 29010KT P6SM SCT015 OVC025
      TEMPO 2209/2213 OVC015
     FM221600 31012G20KT P6SM BKN035
     FM221900 30014G22KT P6SM SCT035
     FM230000 33006KT P6SM FEW035=



000
FTUS41 KBGM 220400 AAA
TAFITH
TAF AMD
KITH 220428Z 2204/2224 27007KT P6SM BKN035
      TEMPO 2205/2207 BKN025
     FM220700 29010KT P6SM OVC015
      TEMPO 2208/2212 -SHRA OVC008
     FM221500 31012G20KT P6SM BKN020=



000
FTUS41 KBGM 220400 AAA
TAFSYR
TAF AMD
KSYR 220407Z 2204/2224 25012KT P6SM SCT050
     FM220600 29010G14KT P6SM OVC025
      TEMPO 2208/2212 5SM -SHRA BR OVC012
     FM221500 29012G20KT P6SM OVC025=



000
FTUS41 KBGM 220300 AAA
TAFELM
TAF AMD
KELM 220318Z 2203/2224 23004KT 5SM BR SCT060
      TEMPO 2203/2205 2SM BR
     FM220500 29008KT P6SM OVC025
     FM221500 30010G20KT P6SM BKN025=



000
FTUS41 KBGM 212300
TAFSYR
TAF
KSYR 212328Z 2200/2224 26007KT P6SM BKN050
     FM220100 26010KT P6SM SCT050
     FM220400 29010G14KT P6SM OVC015
      TEMPO 2208/2212 5SM -SHRA BR OVC010
     FM221500 29012G20KT P6SM OVC025=



000
FTUS41 KBGM 212300
TAFITH
TAF
KITH 212328Z 2200/2224 25007KT P6SM SCT050
     FM220500 29010KT P6SM OVC015
      TEMPO 2208/2212 -SHRA OVC008
     FM221500 31012G20KT P6SM BKN020=



000
FTUS41 KBGM 212300
TAFAVP
TAF
KAVP 212328Z 2200/2224 20005KT P6SM BKN050
      TEMPO 2201/2203 5SM SHRA OVC025
     FM220400 25006KT P6SM SCT080
     FM220800 29008KT P6SM OVC030
     FM221500 31012G20KT P6SM BKN035=



000
FTUS41 KBGM 212300
TAFBGM
TAF
KBGM 212328Z 2200/2224 28006KT P6SM OVC030
     FM220100 26007KT P6SM SCT050
     FM220600 30010KT P6SM OVC015
      TEMPO 2209/2213 -SHRA OVC008
     FM221500 32012G20KT P6SM BKN015=



000
FTUS41 KBGM 212300
TAFELM
TAF
KELM 212328Z 2200/2224 25007KT P6SM SCT060
     FM220500 29008KT P6SM OVC025
     FM221500 30010G20KT P6SM BKN025=



000
FTUS41 KBGM 212000 AAA
TAFELM
TAF AMD
KELM 212034Z 2121/2218 22010G20KT P6SM SCT035 BKN050
      TEMPO 2121/2122 2SM TSRA BR OVC025CB
     FM212300 28008KT P6SM BKN040
     FM220600 30008KT P6SM OVC025
     FM221500 30010G20KT P6SM BKN025=



000
FTUS41 KBGM 212000 AAA
TAFITH
TAF AMD
KITH 212033Z 2121/2218 20010G18KT P6SM SCT035 BKN060
      TEMPO 2121/2122 2SM TSRA BR OVC025CB
     FM212300 29008KT P6SM BKN035
     FM220600 30010KT P6SM OVC015
     FM221500 32012G22KT P6SM BKN015=



000
FTUS41 KBGM 211900 AAB
TAFSYR
TAF AMD
KSYR 211926Z 2119/2218 22010G20KT P6SM SCT040 BKN070
      TEMPO 2119/2122 3SM TSRA BR OVC025CB
     FM212300 28012KT P6SM BKN040
     FM220400 29012KT P6SM OVC015
     FM221500 32012G22KT P6SM BKN025=



000
FTUS41 KBGM 211800 AAA
TAFSYR
TAF AMD
KSYR 211852Z 2119/2218 22010G20KT P6SM SCT040 BKN070
      TEMPO 2119/2122 3SM SHRA BR OVC025
     FM212300 28012KT P6SM BKN040
     FM220400 29012KT P6SM OVC015
     FM221500 32012G22KT P6SM BKN025=



000
FTUS41 KBGM 211700
TAFELM
TAF
KELM 211740Z 2118/2218 22010G18KT P6SM SCT040 BKN070
      TEMPO 2120/2122 4SM SHRA BR OVC025
     FM212300 28008KT P6SM BKN040
     FM220600 30008KT P6SM OVC025
     FM221500 30010G20KT P6SM BKN025=



000
FTUS41 KBGM 211700
TAFSYR
TAF
KSYR 211740Z 2118/2218 22010G20KT P6SM SCT040 BKN070
      TEMPO 2120/2122 4SM SHRA BR OVC025
     FM212300 28012KT P6SM BKN040
     FM220400 29012KT P6SM OVC015
     FM221500 32012G22KT P6SM BKN025=



000
FTUS41 KBGM 211700
TAFITH
TAF
KITH 211740Z 2118/2218 20010G18KT P6SM SCT035 BKN060
      TEMPO 2120/2122 4SM SHRA BR OVC025
     FM212300 29008KT P6SM BKN035
     FM220600 30010KT P6SM OVC015
     FM221500 32012G22KT P6SM BKN015=



000
FTUS41 KBGM 211700
TAFBGM
TAF
KBGM 211740Z 2118/2218 20010G20KT P6SM SCT035 BKN060
      TEMPO 2121/2123 4SM SHRA BR OVC025
     FM220000 28008KT P6SM BKN035
     FM220600 30010KT P6SM OVC015
     FM221500 32012G22KT P6SM BKN015=



000
FTUS41 KBGM 211700
TAFAVP
TAF
KAVP 211740Z 2118/2218 22010KT P6SM SCT040 BKN070
      TEMPO 2122/2124 4SM SHRA BR OVC025
     FM220200 29008KT P6SM BKN040
     FM221500 32012G22KT P6SM BKN035=



000
FTUS41 KBGM 211400 AAA
TAFBGM
TAF AMD
KBGM 211439Z 2115/2212 19010G20KT P6SM BKN120
     FM211700 20010G20KT P6SM SCT025 BKN040
      TEMPO 2120/2123 4SM -TSRA BR OVC025CB
     FM220000 27008KT P6SM BKN035
     FM220600 30007KT P6SM OVC020=



000
FTUS41 KBGM 211400 AAA
TAFELM
TAF AMD
KELM 211432Z 2115/2212 22010G20KT P6SM BKN040
      TEMPO 2116/2118 5SM SHRA BR BKN025 OVC035
     FM211800 23010G18KT P6SM BKN040
      TEMPO 2119/2121 3SM TSRA BR OVC025CB
     FM212200 27006KT P6SM BKN040
     FM220500 30005KT P6SM OVC025=



000
FTUS41 KBGM 211400 AAA
TAFITH
TAF AMD
KITH 211429Z 2114/2212 18010G18KT P6SM BKN040
      TEMPO 2116/2118 5SM SHRA BR BKN025 OVC035
     FM211800 20010G18KT P6SM SCT025 BKN035
      TEMPO 2119/2121 3SM TSRA BR OVC025CB
     FM212200 29008KT P6SM BKN035
     FM220400 30008KT P6SM OVC015=



000
FTUS41 KBGM 211400 AAA
TAFSYR
TAF AMD
KSYR 211423Z 2114/2212 19015G25KT P6SM BKN050
      TEMPO 2115/2117 5SM SHRA BR BKN025 OVC040
     FM211700 23012G22KT P6SM SCT025 BKN040
      TEMPO 2118/2121 3SM TSRA BR OVC025CB
     FM212200 29010KT P6SM BKN050
     FM220400 28008KT P6SM OVC025=



000
FTUS41 KBGM 211100
TAFAVP
TAF
KAVP 211126Z 2112/2212 10004KT P6SM SCT250
     FM211300 19005KT P6SM SCT250
     FM211600 21012G20KT P6SM SCT045
     FM212100 20012KT P6SM BKN040 PROB30 2122/2202 5SM -TSRA BR
      OVC040CB
     FM220200 25006KT P6SM BKN035
      TEMPO 2208/2212 OVC025=



000
FTUS41 KBGM 211100
TAFITH
TAF
KITH 211126Z 2112/2212 18012G22KT P6SM BKN040
      TEMPO 2119/2123 4SM -TSRA BR OVC040CB
     FM212300 27008KT P6SM BKN035
     FM220400 30008KT P6SM OVC015=



000
FTUS41 KBGM 211100
TAFSYR
TAF
KSYR 211126Z 2112/2212 17012G24KT P6SM BKN060
      TEMPO 2118/2122 4SM -TSRA BR OVC040CB
     FM212200 26008KT P6SM BKN050
     FM220400 28008KT P6SM OVC025=



000
FTUS41 KBGM 211100
TAFELM
TAF
KELM 211126Z 2112/2212 19010KT P6SM BKN045
     FM211400 19012G20KT P6SM BKN050
      TEMPO 2119/2123 4SM -TSRA BR OVC040CB
     FM212300 27006KT P6SM BKN040
     FM220500 30005KT P6SM OVC025=



000
FTUS41 KBGM 211100
TAFBGM
TAF
KBGM 211126Z 2112/2212 19010G20KT P6SM SCT040 BKN250
     FM211400 20012G25KT P6SM BKN035
      TEMPO 2120/2124 4SM -TSRA BR OVC035CB
     FM220000 27008KT P6SM BKN035
     FM220600 30007KT P6SM OVC020=



000
FTUS41 KBGM 210800 AAA
TAFSYR
TAF AMD
KSYR 210837Z 2109/2206 17012G24KT P6SM SCT060 BKN250
      TEMPO 2109/2112 BKN040
     FM211400 21015G25KT P6SM OVC045 PROB30 2118/2121 4SM -TSRA BR
      OVC025CB
     FM212100 28008KT P6SM SCT025 BKN050
     FM220300 30008KT P6SM OVC025=



000
FTUS41 KBGM 210800 AAA
TAFAVP
TAF AMD
KAVP 210837Z 2109/2206 12004KT P6SM SCT250
      TEMPO 2109/2112 OVC020
     FM211200 20005KT P6SM BKN050
     FM211600 21012G20KT P6SM BKN045
     FM212200 22012KT P6SM BKN040 PROB30 2122/2202 5SM -SHRA
     FM220200 28006KT P6SM SCT025 BKN040=



000
FTUS41 KBGM 210800 AAA
TAFELM
TAF AMD
KELM 210837Z 2109/2206 22005KT P6SM SCT050 BKN250
     FM211200 22010G20KT P6SM BKN045 PROB30 2118/2121 4SM -TSRA BR
      OVC025CB
     FM212100 28008KT P6SM SCT025 BKN060
     FM220300 30004KT P6SM OVC020=



000
FTUS41 KBGM 210800 AAA
TAFBGM
TAF AMD
KBGM 210837Z 2109/2206 18010KT P6SM BKN250
     FM211200 19010G20KT P6SM BKN040
     FM211400 21015G25KT P6SM BKN035 PROB30 2118/2122 4SM -TSRA BR
      OVC025CB
     FM212200 28008KT P6SM SCT015 BKN050
     FM220400 30006KT P6SM OVC020=



000
FTUS41 KBGM 210800 AAA
TAFITH
TAF AMD
KITH 210837Z 2109/2206 17012G18KT P6SM SCT050 BKN250
     FM211200 18012G22KT P6SM SCT025 BKN040 PROB30 2118/2121 4SM
      -TSRA BR OVC025CB
     FM212100 29008KT P6SM SCT015 BKN050
     FM220400 30006KT P6SM OVC015=



000
FTUS41 KBGM 210500
TAFAVP
TAF
KAVP 210536Z 2106/2206 17004KT P6SM SCT015 BKN250
      TEMPO 2106/2109 OVC020
     FM211200 20005KT P6SM BKN050
     FM211600 21012G20KT P6SM BKN045
     FM212200 22012KT P6SM BKN040 PROB30 2122/2202 5SM -SHRA
     FM220200 28006KT P6SM SCT025 BKN040=



000
FTUS41 KBGM 210500
TAFSYR
TAF
KSYR 210536Z 2106/2206 17012G24KT P6SM SCT060 BKN250
      TEMPO 2108/2112 BKN040
     FM211400 21015G25KT P6SM OVC045 PROB30 2117/2121 4SM -TSRA BR
      OVC025CB
     FM212100 28008KT P6SM SCT025 BKN050
     FM220300 30008KT P6SM OVC025=



000
FTUS41 KBGM 210500
TAFBGM
TAF
KBGM 210536Z 2106/2206 18010G20KT P6SM BKN250
     FM211200 19010G20KT P6SM BKN040
     FM211400 21015G25KT P6SM BKN035 PROB30 2118/2122 4SM -TSRA BR
      OVC025CB
     FM212200 28008KT P6SM SCT015 BKN050
     FM220400 30006KT P6SM OVC020=



000
FTUS41 KBGM 210500
TAFELM
TAF
KELM 210536Z 2106/2206 20005G15KT P6SM SCT050 BKN250
     FM211200 22010G20KT P6SM BKN045 PROB30 2117/2121 4SM -TSRA BR
      OVC025CB
     FM212100 28008KT P6SM SCT025 BKN060
     FM220300 30004KT P6SM OVC020=



000
FTUS41 KBGM 210500
TAFITH
TAF
KITH 210536Z 2106/2206 17012G18KT P6SM SCT050 BKN250
     FM211200 18012G22KT P6SM SCT025 BKN040 PROB30 2117/2121 4SM
      -TSRA BR OVC025CB
     FM212100 29008KT P6SM SCT015 BKN050
     FM220400 30006KT P6SM OVC015=



000
FTUS41 KBGM 202300 RRA
TAFAVP
TAF
KAVP 202350Z 2100/2124 19005KT P6SM SCT025 BKN050
     FM210400 17005KT P6SM OVC015
     FM211200 22008KT P6SM OVC025
     FM211400 23012G22KT P6SM SCT025 BKN045=



000
FTUS41 KBGM 202300 RRA
TAFBGM
TAF
KBGM 202350Z 2100/2124 18010G20KT P6SM SCT035
     FM210500 18010G20KT P6SM OVC012
     FM211200 19010G20KT P6SM OVC025
     FM211400 21015G25KT P6SM SCT025 BKN035 PROB30 2118/2122 3SM
      SHRA BR OVC025
     FM212200 28008KT P6SM SCT015 BKN060=



000
FTUS41 KBGM 202300 RRA
TAFELM
TAF
KELM 202350Z 2100/2124 20005KT P6SM FEW045
     FM210600 20005KT P6SM OVC025
     FM211200 22010G20KT P6SM SCT025 BKN045 PROB30 2117/2121 3SM
      SHRA BR OVC025
     FM212100 28008KT P6SM SCT025 BKN060=



000
FTUS41 KBGM 202300 RRA
TAFSYR
TAF
KSYR 202350Z 2100/2124 17010G20KT P6SM SCT040
      TEMPO 2108/2112 BKN040
     FM211400 21015G25KT P6SM OVC045 PROB30 2117/2121 3SM SHRA BR
      OVC025
     FM212100 28008KT P6SM SCT025 BKN070=



000
FTUS41 KBGM 202300 RRA
TAFITH
TAF
KITH 202350Z 2100/2124 17010G20KT P6SM FEW035
     FM210600 17010G20KT P6SM OVC015
     FM211200 20012G22KT P6SM SCT025 BKN035 PROB30 2117/2121 3SM
      SHRA BR OVC025
     FM212100 29008KT P6SM SCT015 BKN060=



    US Dept of Commerce
    National Oceanic and Atmospheric Administration
    National Weather Service
    1325 East West Highway
    Silver Spring, MD 20910
    Page Author: NWS Internet Services Team
Disclaimer
Information Quality
Credits
Glossary
Privacy Policy
Freedom of Information Act (FOIA)
About Us
Career Opportunities